createdAt,value
2018-10-09T00:00:05.443Z,0
2018-10-09T00:01:05.562Z,0
2018-10-09T00:02:06.006Z,0
2018-10-09T00:03:05.669Z,0
2018-10-09T00:04:05.404Z,0
2018-10-09T00:05:05.143Z,0
2018-10-09T00:06:05.644Z,0
2018-10-09T00:07:06.323Z,0
2018-10-09T00:08:05.620Z,0
2018-10-09T00:09:05.367Z,0
2018-10-09T00:10:05.345Z,0
2018-10-09T00:11:05.337Z,0
2018-10-09T00:12:05.713Z,0
2018-10-09T00:13:05.319Z,0
2018-10-09T00:14:05.555Z,0
2018-10-09T00:15:05.298Z,0
2018-10-09T00:16:05.544Z,0
2018-10-09T00:17:05.281Z,0
2018-10-09T00:18:05.261Z,0
2018-10-09T00:19:05.250Z,0
2018-10-09T00:20:05.505Z,0
2018-10-09T00:21:05.240Z,0
2018-10-09T00:22:05.238Z,0
2018-10-09T00:23:05.475Z,0
2018-10-09T00:24:04.955Z,0
2018-10-09T00:25:05.593Z,0
2018-10-09T00:26:05.670Z,0
2018-10-09T00:27:05.173Z,0
2018-10-09T00:28:05.421Z,0
2018-10-09T00:29:05.411Z,0
2018-10-09T00:30:05.147Z,0
2018-10-09T00:31:05.390Z,0
2018-10-09T00:32:05.384Z,0
2018-10-09T00:33:04.893Z,0
2018-10-09T00:34:05.359Z,0
2018-10-09T00:35:04.839Z,0
2018-10-09T00:36:05.337Z,0
2018-10-09T00:37:05.327Z,0
2018-10-09T00:38:05.316Z,0
2018-10-09T00:39:05.062Z,0
2018-10-09T00:40:05.054Z,0
2018-10-09T00:41:05.031Z,0
2018-10-09T00:42:05.281Z,0
2018-10-09T00:43:05.264Z,0
2018-10-09T00:44:05.004Z,0
2018-10-09T00:45:05.254Z,0
2018-10-09T00:46:04.986Z,0
2018-10-09T00:47:05.286Z,0
2018-10-09T00:48:05.216Z,0
2018-10-09T00:49:05.204Z,0
2018-10-09T00:50:05.198Z,0
2018-10-09T00:51:04.930Z,0
2018-10-09T00:52:04.926Z,0
2018-10-09T00:53:05.166Z,0
2018-10-09T00:54:04.901Z,0
2018-10-09T00:55:04.639Z,0
2018-10-09T00:56:04.881Z,0
2018-10-09T00:57:04.621Z,0
2018-10-09T00:58:04.607Z,0
2018-10-09T00:59:04.851Z,0
2018-10-09T01:00:05.094Z,0
2018-10-09T01:01:05.084Z,0
2018-10-09T01:02:05.080Z,0
2018-10-09T01:03:04.813Z,0
2018-10-09T01:04:04.799Z,0
2018-10-09T01:05:05.044Z,0
2018-10-09T01:06:04.780Z,0
2018-10-09T01:07:05.033Z,0
2018-10-09T01:08:04.567Z,0
2018-10-09T01:09:04.834Z,0
2018-10-09T01:10:04.484Z,0
2018-10-09T01:11:04.474Z,0
2018-10-09T01:12:04.718Z,0
2018-10-09T01:13:04.193Z,0
2018-10-09T01:14:04.704Z,0
2018-10-09T01:15:04.940Z,0
2018-10-09T01:16:04.432Z,0
2018-10-09T01:17:04.923Z,0
2018-10-09T01:18:04.656Z,0
2018-10-09T01:19:04.905Z,0
2018-10-09T01:20:04.377Z,0
2018-10-09T01:21:04.884Z,0
2018-10-09T01:22:04.613Z,0
2018-10-09T01:23:04.861Z,0
2018-10-09T01:24:04.595Z,0
2018-10-09T01:25:04.842Z,0
2018-10-09T01:26:04.826Z,0
2018-10-09T01:27:04.309Z,0
2018-10-09T01:28:04.044Z,0
2018-10-09T01:29:04.805Z,0
2018-10-09T01:30:04.791Z,0
2018-10-09T01:31:04.776Z,0
2018-10-09T01:32:04.770Z,0
2018-10-09T01:33:04.757Z,0
2018-10-09T01:34:04.753Z,0
2018-10-09T01:35:04.737Z,0
2018-10-09T01:36:04.467Z,0
2018-10-09T01:37:04.709Z,0
2018-10-09T01:38:04.708Z,0
2018-10-09T01:39:04.445Z,0
2018-10-09T01:40:04.684Z,0
2018-10-09T01:41:04.673Z,0
2018-10-09T01:42:04.411Z,0
2018-10-09T01:43:04.417Z,0
2018-10-09T01:44:04.389Z,0
2018-10-09T01:45:04.377Z,0
2018-10-09T01:46:04.639Z,0
2018-10-09T01:47:04.365Z,0
2018-10-09T01:48:04.363Z,0
2018-10-09T01:49:04.343Z,0
2018-10-09T01:50:04.590Z,0
2018-10-09T01:51:04.063Z,0
2018-10-09T01:52:04.047Z,0
2018-10-09T01:53:04.555Z,0
2018-10-09T01:54:04.540Z,0
2018-10-09T01:55:04.020Z,0
2018-10-09T01:56:04.518Z,0
2018-10-09T01:57:04.258Z,0
2018-10-09T01:58:04.502Z,0
2018-10-09T01:59:04.231Z,0
2018-10-09T02:00:04.225Z,0
2018-10-09T02:01:04.219Z,0
2018-10-09T02:02:04.198Z,0
2018-10-09T02:03:04.493Z,0
2018-10-09T02:04:04.182Z,0
2018-10-09T02:05:04.433Z,0
2018-10-09T02:06:03.906Z,0
2018-10-09T02:07:04.405Z,0
2018-10-09T02:08:04.397Z,0
2018-10-09T02:09:04.128Z,0
2018-10-09T02:10:04.179Z,0
2018-10-09T02:11:04.103Z,0
2018-10-09T02:12:04.096Z,0
2018-10-09T02:13:04.093Z,0
2018-10-09T02:14:04.073Z,0
2018-10-09T02:15:03.559Z,0
2018-10-09T02:16:04.308Z,0
2018-10-09T02:17:04.310Z,0
2018-10-09T02:18:04.034Z,0
2018-10-09T02:19:04.024Z,0
2018-10-09T02:20:04.016Z,0
2018-10-09T02:21:04.019Z,0
2018-10-09T02:22:04.256Z,0
2018-10-09T02:23:04.265Z,0
2018-10-09T02:24:04.225Z,0
2018-10-09T02:25:03.965Z,0
2018-10-09T02:26:03.946Z,0
2018-10-09T02:27:03.945Z,0
2018-10-09T02:28:03.932Z,0
2018-10-09T02:29:03.928Z,0
2018-10-09T02:30:04.169Z,0
2018-10-09T02:31:03.897Z,0
2018-10-09T02:32:03.887Z,0
2018-10-09T02:33:03.880Z,0
2018-10-09T02:34:03.864Z,0
2018-10-09T02:35:03.864Z,0
2018-10-09T02:36:03.844Z,0
2018-10-09T02:37:03.842Z,0
2018-10-09T02:38:04.077Z,0
2018-10-09T02:39:03.820Z,0
2018-10-09T02:40:04.059Z,0
2018-10-09T02:41:04.050Z,0
2018-10-09T02:42:03.525Z,0
2018-10-09T02:43:03.851Z,0
2018-10-09T02:44:04.021Z,0
2018-10-09T02:45:03.752Z,0
2018-10-09T02:46:03.745Z,0
2018-10-09T02:47:03.989Z,0
2018-10-09T02:48:03.735Z,0
2018-10-09T02:49:03.962Z,0
2018-10-09T02:50:03.960Z,0
2018-10-09T02:51:03.946Z,0
2018-10-09T02:52:03.678Z,0
2018-10-09T02:53:03.922Z,0
2018-10-09T02:54:03.653Z,0
2018-10-09T02:55:03.644Z,0
2018-10-09T02:56:03.633Z,0
2018-10-09T02:57:03.883Z,0
2018-10-09T02:58:03.611Z,0
2018-10-09T02:59:03.859Z,0
2018-10-09T03:00:03.846Z,0
2018-10-09T03:01:03.580Z,0
2018-10-09T03:02:03.313Z,0
2018-10-09T03:03:03.556Z,0
2018-10-09T03:04:03.813Z,0
2018-10-09T03:05:03.792Z,0
2018-10-09T03:06:03.825Z,0
2018-10-09T03:07:03.517Z,0
2018-10-09T03:08:03.507Z,0
2018-10-09T03:09:03.495Z,0
2018-10-09T03:10:03.751Z,0
2018-10-09T03:11:03.476Z,0
2018-10-09T03:12:03.461Z,0
2018-10-09T03:13:03.453Z,0
2018-10-09T03:14:03.444Z,0
2018-10-09T03:15:03.430Z,0
2018-10-09T03:16:03.417Z,0
2018-10-09T03:17:03.675Z,0
2018-10-09T03:18:03.401Z,0
2018-10-09T03:19:03.380Z,0
2018-10-09T03:20:03.371Z,0
2018-10-09T03:21:03.366Z,0
2018-10-09T03:22:03.354Z,0
2018-10-09T03:23:03.352Z,0
2018-10-09T03:24:03.331Z,0
2018-10-09T03:25:03.342Z,0
2018-10-09T03:26:03.563Z,0
2018-10-09T03:27:03.567Z,0
2018-10-09T03:28:03.287Z,0
2018-10-09T03:29:03.281Z,0
2018-10-09T03:30:03.265Z,0
2018-10-09T03:31:03.263Z,0
2018-10-09T03:32:03.501Z,0
2018-10-09T03:33:03.484Z,0
2018-10-09T03:34:03.479Z,0
2018-10-09T03:35:03.465Z,0
2018-10-09T03:36:02.945Z,0
2018-10-09T03:37:03.442Z,0
2018-10-09T03:38:03.189Z,0
2018-10-09T03:39:03.177Z,0
2018-10-09T03:40:03.154Z,0
2018-10-09T03:41:03.397Z,0
2018-10-09T03:42:03.395Z,0
2018-10-09T03:43:03.123Z,0
2018-10-09T03:44:03.365Z,0
2018-10-09T03:45:03.370Z,0
2018-10-09T03:46:03.095Z,0
2018-10-09T03:47:03.084Z,0
2018-10-09T03:48:03.322Z,0
2018-10-09T03:49:02.810Z,0
2018-10-09T03:50:03.302Z,0
2018-10-09T03:51:03.293Z,0
2018-10-09T03:52:03.283Z,0
2018-10-09T03:53:03.270Z,0
2018-10-09T03:54:03.004Z,0
2018-10-09T03:55:02.743Z,0
2018-10-09T03:56:02.981Z,0
2018-10-09T03:57:03.235Z,0
2018-10-09T03:58:02.962Z,0
2018-10-09T03:59:02.949Z,0
2018-10-09T04:00:02.938Z,0
2018-10-09T04:01:03.178Z,0
2018-10-09T04:02:02.703Z,0
2018-10-09T04:03:03.166Z,0
2018-10-09T04:04:03.162Z,0
2018-10-09T04:05:02.635Z,0
2018-10-09T04:06:02.618Z,0
2018-10-09T04:07:03.119Z,0
2018-10-09T04:08:03.107Z,0
2018-10-09T04:09:03.351Z,0
2018-10-09T04:10:02.836Z,0
2018-10-09T04:11:02.565Z,0
2018-10-09T04:12:03.065Z,0
2018-10-09T04:13:02.547Z,0
2018-10-09T04:14:03.049Z,0
2018-10-09T04:15:03.032Z,0
2018-10-09T04:16:03.025Z,0
2018-10-09T04:17:02.761Z,0
2018-10-09T04:18:02.754Z,0
2018-10-09T04:19:02.737Z,0
2018-10-09T04:20:02.984Z,0
2018-10-09T04:21:02.713Z,0
2018-10-09T04:22:02.960Z,0
2018-10-09T04:23:02.445Z,0
2018-10-09T04:24:02.940Z,0
2018-10-09T04:25:02.416Z,0
2018-10-09T04:26:02.917Z,0
2018-10-09T04:27:02.667Z,0
2018-10-09T04:28:02.384Z,0
2018-10-09T04:29:02.888Z,0
2018-10-09T04:30:02.617Z,0
2018-10-09T04:31:02.862Z,0
2018-10-09T04:32:02.599Z,0
2018-10-09T04:33:02.840Z,0
2018-10-09T04:34:02.850Z,0
2018-10-09T04:35:02.562Z,0
2018-10-09T04:36:02.295Z,0
2018-10-09T04:37:02.794Z,0
2018-10-09T04:38:02.782Z,0
2018-10-09T04:39:02.518Z,0
2018-10-09T04:40:02.502Z,0
2018-10-09T04:41:02.747Z,0
2018-10-09T04:42:02.740Z,0
2018-10-09T04:43:02.473Z,0
2018-10-09T04:44:02.461Z,0
2018-10-09T04:45:02.704Z,0
2018-10-09T04:46:02.441Z,0
2018-10-09T04:47:02.681Z,0
2018-10-09T04:48:02.673Z,0
2018-10-09T04:49:02.405Z,0
2018-10-09T04:50:02.400Z,0
2018-10-09T04:51:02.636Z,0
2018-10-09T04:52:02.373Z,0
2018-10-09T04:53:02.937Z,4
2018-10-09T04:54:02.605Z,4
2018-10-09T04:55:02.337Z,0
2018-10-09T04:56:02.328Z,4
2018-10-09T04:57:02.576Z,4
2018-10-09T04:58:02.308Z,4
2018-10-09T04:59:02.298Z,8
2018-10-09T05:00:02.034Z,4
2018-10-09T05:01:02.271Z,8
2018-10-09T05:02:02.261Z,8
2018-10-09T05:03:01.994Z,12
2018-10-09T05:04:02.508Z,12
2018-10-09T05:05:02.480Z,12
2018-10-09T05:06:02.475Z,16
2018-10-09T05:07:02.473Z,20
2018-10-09T05:08:02.460Z,28
2018-10-09T05:09:02.436Z,32
2018-10-09T05:10:02.177Z,40
2018-10-09T05:11:02.417Z,44
2018-10-09T05:12:02.155Z,52
2018-10-09T05:13:02.410Z,56
2018-10-09T05:14:02.128Z,60
2018-10-09T05:15:01.861Z,68
2018-10-09T05:16:02.116Z,76
2018-10-09T05:17:02.351Z,84
2018-10-09T05:18:02.500Z,88
2018-10-09T05:19:01.818Z,100
2018-10-09T05:20:02.056Z,112
2018-10-09T05:21:02.299Z,124
2018-10-09T05:22:04.746Z,140
2018-10-09T05:23:02.032Z,152
2018-10-09T05:24:02.022Z,172
2018-10-09T05:25:02.267Z,188
2018-10-09T05:26:01.751Z,208
2018-10-09T05:27:01.734Z,232
2018-10-09T05:28:01.987Z,256
2018-10-09T05:29:01.964Z,280
2018-10-09T05:30:01.696Z,308
2018-10-09T05:31:02.347Z,332
2018-10-09T05:32:01.677Z,360
2018-10-09T05:33:01.916Z,388
2018-10-09T05:34:02.176Z,424
2018-10-09T05:35:02.151Z,460
2018-10-09T05:36:02.144Z,492
2018-10-09T05:37:01.872Z,524
2018-10-09T05:38:01.609Z,556
2018-10-09T05:39:01.854Z,584
2018-10-09T05:40:02.114Z,608
2018-10-09T05:41:01.830Z,632
2018-10-09T05:42:02.074Z,660
2018-10-09T05:43:01.804Z,700
2018-10-09T05:44:01.541Z,740
2018-10-09T05:45:01.832Z,768
2018-10-09T05:46:02.030Z,796
2018-10-09T05:47:01.505Z,816
2018-10-09T05:48:02.015Z,852
2018-10-09T05:49:01.989Z,892
2018-10-09T05:50:01.755Z,936
2018-10-09T05:51:01.969Z,984
2018-10-09T05:52:01.968Z,1032
2018-10-09T05:53:01.950Z,1088
2018-10-09T05:54:01.684Z,1144
2018-10-09T05:55:01.928Z,1196
2018-10-09T05:56:01.409Z,1252
2018-10-09T05:57:01.906Z,1312
2018-10-09T05:58:01.816Z,1372
2018-10-09T05:59:01.887Z,1428
2018-10-09T06:00:01.873Z,1480
2018-10-09T06:01:01.604Z,1536
2018-10-09T06:02:01.852Z,1616
2018-10-09T06:03:01.840Z,1712
2018-10-09T06:04:01.571Z,1800
2018-10-09T06:05:01.821Z,1868
2018-10-09T06:06:02.384Z,1916
2018-10-09T06:07:01.540Z,1952
2018-10-09T06:08:01.544Z,1992
2018-10-09T06:09:01.009Z,2024
2018-10-09T06:10:01.262Z,2060
2018-10-09T06:11:01.752Z,2104
2018-10-09T06:12:01.750Z,2136
2018-10-09T06:13:01.478Z,2172
2018-10-09T06:14:01.464Z,2200
2018-10-09T06:15:01.198Z,2216
2018-10-09T06:16:02.156Z,2232
2018-10-09T06:17:01.429Z,2260
2018-10-09T06:18:01.680Z,2300
2018-10-09T06:19:01.667Z,2336
2018-10-09T06:20:01.656Z,2364
2018-10-09T06:21:01.642Z,2400
2018-10-09T06:22:01.704Z,2440
2018-10-09T06:23:01.111Z,2472
2018-10-09T06:24:01.364Z,2508
2018-10-09T06:25:01.346Z,2560
2018-10-09T06:26:01.591Z,2616
2018-10-09T06:27:01.585Z,2664
2018-10-09T06:28:01.888Z,2716
2018-10-09T06:29:01.555Z,2760
2018-10-09T06:30:01.036Z,2796
2018-10-09T06:31:01.027Z,2836
2018-10-09T06:32:01.018Z,2872
2018-10-09T06:33:01.263Z,2916
2018-10-09T06:34:01.472Z,2952
2018-10-09T06:35:01.497Z,2996
2018-10-09T06:36:01.231Z,3040
2018-10-09T06:37:01.498Z,3072
2018-10-09T06:38:30.828Z,3116
2018-10-09T06:39:01.201Z,3128
2018-10-09T06:40:01.448Z,3152
2018-10-09T06:41:01.444Z,3184
2018-10-09T06:42:01.434Z,3220
2018-10-09T06:43:01.321Z,3244
2018-10-09T06:44:01.148Z,3240
2018-10-09T06:45:01.396Z,3244
2018-10-09T06:46:01.127Z,3264
2018-10-09T06:47:01.115Z,3284
2018-10-09T06:48:01.371Z,3324
2018-10-09T06:49:01.096Z,3364
2018-10-09T06:50:01.349Z,3404
2018-10-09T06:51:01.076Z,3428
2018-10-09T06:52:00.562Z,3396
2018-10-09T06:53:01.061Z,3388
2018-10-09T06:54:02.620Z,3432
2018-10-09T06:55:01.411Z,3468
2018-10-09T06:56:01.286Z,3492
2018-10-09T06:57:01.284Z,3568
2018-10-09T06:58:01.005Z,3668
2018-10-09T06:59:01.256Z,3732
2018-10-09T07:00:00.498Z,3764
2018-10-09T07:01:01.240Z,3796
2018-10-09T07:02:00.981Z,3816
2018-10-09T07:03:01.232Z,3844
2018-10-09T07:04:01.217Z,3872
2018-10-09T07:05:01.204Z,3896
2018-10-09T07:06:01.196Z,3912
2018-10-09T07:07:01.186Z,3904
2018-10-09T07:08:01.191Z,3872
2018-10-09T07:09:00.911Z,3840
2018-10-09T07:10:00.901Z,3832
2018-10-09T07:11:01.272Z,3844
2018-10-09T07:12:01.139Z,3888
2018-10-09T07:13:00.643Z,3944
2018-10-09T07:14:01.127Z,4008
2018-10-09T07:15:01.116Z,4088
2018-10-09T07:16:00.847Z,4184
2018-10-09T07:17:01.061Z,4292
2018-10-09T07:18:01.091Z,4420
2018-10-09T07:19:01.084Z,4548
2018-10-09T07:20:01.079Z,4688
2018-10-09T07:21:00.554Z,4856
2018-10-09T07:22:01.046Z,5032
2018-10-09T07:23:01.048Z,5160
2018-10-09T07:24:01.048Z,5288
2018-10-09T07:25:01.032Z,5416
2018-10-09T07:26:00.760Z,5564
2018-10-09T07:27:00.756Z,5704
2018-10-09T07:28:01.444Z,5824
2018-10-09T07:29:00.998Z,5948
2018-10-09T07:30:00.984Z,6072
2018-10-09T07:31:00.468Z,6192
2018-10-09T07:32:00.460Z,6292
2018-10-09T07:33:00.705Z,4880
2018-10-09T07:34:00.953Z,6456
2018-10-09T07:35:00.954Z,6516
2018-10-09T07:36:00.692Z,6540
2018-10-09T07:37:00.424Z,6556
2018-10-09T07:38:00.946Z,6556
2018-10-09T07:39:00.918Z,6500
2018-10-09T07:40:00.908Z,6408
2018-10-09T07:41:00.901Z,6280
2018-10-09T07:42:00.899Z,6128
2018-10-09T07:43:00.640Z,5916
2018-10-09T07:44:01.318Z,5644
2018-10-09T07:45:00.886Z,5408
2018-10-09T07:46:00.353Z,5088
2018-10-09T07:47:00.917Z,4844
2018-10-09T07:48:00.595Z,4672
2018-10-09T07:49:00.846Z,4532
2018-10-09T07:50:00.594Z,4408
2018-10-09T07:51:00.582Z,4332
2018-10-09T07:52:00.314Z,4248
2018-10-09T07:53:01.064Z,4120
2018-10-09T07:54:00.302Z,3972
2018-10-09T07:55:00.803Z,3840
2018-10-09T07:56:00.545Z,3720
2018-10-09T07:57:00.798Z,3652
2018-10-09T07:58:00.782Z,3684
2018-10-09T07:59:00.786Z,3780
2018-10-09T08:00:00.773Z,3836
2018-10-09T08:01:00.506Z,3912
2018-10-09T08:02:00.508Z,3960
2018-10-09T08:03:00.237Z,3968
2018-10-09T08:04:00.498Z,3992
2018-10-09T08:05:00.483Z,4020
2018-10-09T08:06:00.476Z,4024
2018-10-09T08:07:00.740Z,4072
2018-10-09T08:08:00.467Z,4120
2018-10-09T08:09:00.716Z,4168
2018-10-09T08:10:00.452Z,4304
2018-10-09T08:11:01.124Z,4444
2018-10-09T08:12:00.182Z,4516
2018-10-09T08:13:00.695Z,4564
2018-10-09T08:14:00.168Z,4684
2018-10-09T08:15:00.690Z,4872
2018-10-09T08:16:00.677Z,5116
2018-10-09T08:17:00.660Z,5360
2018-10-09T08:18:00.666Z,5552
2018-10-09T08:19:00.652Z,5464
2018-10-09T08:20:00.394Z,5664
2018-10-09T08:21:00.385Z,5652
2018-10-09T08:22:00.372Z,5720
2018-10-09T08:23:01.263Z,5864
2018-10-09T08:24:00.623Z,6020
2018-10-09T08:25:00.619Z,6156
2018-10-09T08:26:00.607Z,6236
2018-10-09T08:27:00.603Z,6312
2018-10-09T08:28:00.920Z,6356
2018-10-09T08:29:00.338Z,6420
2018-10-09T08:30:00.329Z,6500
2018-10-09T08:31:00.573Z,6524
2018-10-09T08:32:00.314Z,6504
2018-10-09T08:33:00.313Z,6592
2018-10-09T08:34:00.303Z,6592
2018-10-09T08:35:00.551Z,6592
2018-10-09T08:36:00.035Z,6644
2018-10-09T08:37:00.551Z,6660
2018-10-09T08:38:00.026Z,6604
2018-10-09T08:39:00.275Z,6548
2018-10-09T08:40:00.583Z,6520
2018-10-09T08:41:00.521Z,6428
2018-10-09T08:42:00.262Z,6360
2018-10-09T08:43:00.255Z,6324
2018-10-09T08:44:00.251Z,6316
2018-10-09T08:45:00.243Z,6344
2018-10-09T08:46:00.494Z,6356
2018-10-09T08:47:00.489Z,6388
2018-10-09T08:48:00.232Z,6372
2018-10-09T08:49:00.481Z,6336
2018-10-09T08:50:00.475Z,6316
2018-10-09T08:51:00.475Z,6276
2018-10-09T08:52:00.729Z,6288
2018-10-09T08:53:00.470Z,6368
2018-10-09T08:54:00.197Z,6448
2018-10-09T08:55:00.199Z,6540
2018-10-09T08:55:59.935Z,6616
2018-10-09T08:57:00.444Z,6700
2018-10-09T08:58:00.181Z,6768
2018-10-09T08:59:00.289Z,6800
2018-10-09T09:00:00.452Z,6828
2018-10-09T09:01:00.444Z,6912
2018-10-09T09:01:59.940Z,6956
2018-10-09T09:03:00.416Z,7004
2018-10-09T09:04:00.416Z,7040
2018-10-09T09:04:59.895Z,7076
2018-10-09T09:06:00.403Z,7120
2018-10-09T09:07:00.393Z,7128
2018-10-09T09:08:00.394Z,7124
2018-10-09T09:09:00.132Z,7112
2018-10-09T09:10:00.396Z,7128
2018-10-09T09:11:00.394Z,7128
2018-10-09T09:12:00.380Z,7124
2018-10-09T09:13:00.381Z,7148
2018-10-09T09:14:00.596Z,7208
2018-10-09T09:15:00.363Z,7240
2018-10-09T09:16:00.363Z,7276
2018-10-09T09:17:00.103Z,7268
2018-10-09T09:18:00.356Z,7284
2018-10-09T09:19:00.098Z,7356
2018-10-09T09:20:00.091Z,7492
2018-10-09T09:21:00.359Z,7640
2018-10-09T09:22:00.085Z,7704
2018-10-09T09:23:00.337Z,7812
2018-10-09T09:24:00.331Z,7904
2018-10-09T09:25:00.074Z,7992
2018-10-09T09:26:00.415Z,8060
2018-10-09T09:27:00.373Z,8172
2018-10-09T09:28:00.480Z,8216
2018-10-09T09:29:00.067Z,8320
2018-10-09T09:30:00.057Z,8436
2018-10-09T09:31:00.100Z,8588
2018-10-09T09:32:00.304Z,8712
2018-10-09T09:33:00.087Z,8892
2018-10-09T09:34:00.339Z,8992
2018-10-09T09:35:00.296Z,9056
2018-10-09T09:36:00.035Z,9120
2018-10-09T09:36:59.775Z,9160
2018-10-09T09:38:00.297Z,9212
2018-10-09T09:39:00.463Z,9256
2018-10-09T09:40:00.029Z,9268
2018-10-09T09:40:59.767Z,9336
2018-10-09T09:42:00.021Z,9416
2018-10-09T09:43:00.275Z,9460
2018-10-09T09:44:00.024Z,9476
2018-10-09T09:45:00.279Z,9528
2018-10-09T09:46:00.972Z,9612
2018-10-09T09:47:00.013Z,9652
2018-10-09T09:48:00.010Z,9704
2018-10-09T09:49:00.000Z,9752
2018-10-09T09:50:00.255Z,9808
2018-10-09T09:51:00.004Z,9852
2018-10-09T09:52:00.466Z,9900
2018-10-09T09:53:00.255Z,9956
2018-10-09T09:53:59.744Z,9972
2018-10-09T09:54:59.730Z,9932
2018-10-09T09:56:00.250Z,9812
2018-10-09T09:56:59.989Z,9804
2018-10-09T09:58:00.319Z,9796
2018-10-09T09:59:01.533Z,9776
2018-10-09T10:00:00.238Z,9740
2018-10-09T10:01:00.234Z,9692
2018-10-09T10:01:59.726Z,9644
2018-10-09T10:02:59.979Z,9640
2018-10-09T10:04:00.235Z,9624
2018-10-09T10:05:00.235Z,9604
2018-10-09T10:05:59.975Z,9612
2018-10-09T10:07:00.239Z,9668
2018-10-09T10:08:00.226Z,9732
2018-10-09T10:09:00.222Z,9780
2018-10-09T10:10:00.225Z,9836
2018-10-09T10:10:59.714Z,9900
2018-10-09T10:11:59.717Z,9956
2018-10-09T10:12:59.969Z,10028
2018-10-09T10:13:59.969Z,10096
2018-10-09T10:14:59.964Z,10164
2018-10-09T10:16:00.441Z,10224
2018-10-09T10:17:00.216Z,10264
2018-10-09T10:18:00.219Z,10244
2018-10-09T10:19:00.210Z,10176
2018-10-09T10:20:00.210Z,10088
2018-10-09T10:21:00.204Z,10024
2018-10-09T10:21:59.957Z,9976
2018-10-09T10:22:59.961Z,9892
2018-10-09T10:23:59.969Z,9784
2018-10-09T10:25:00.211Z,9664
2018-10-09T10:26:00.208Z,9524
2018-10-09T10:26:59.947Z,9388
2018-10-09T10:28:00.203Z,9260
2018-10-09T10:29:00.022Z,9108
2018-10-09T10:29:59.690Z,8928
2018-10-09T10:31:00.207Z,8744
2018-10-09T10:32:00.202Z,8556
2018-10-09T10:33:00.209Z,8396
2018-10-09T10:34:00.196Z,8252
2018-10-09T10:34:59.948Z,8128
2018-10-09T10:35:59.687Z,8012
2018-10-09T10:36:59.951Z,7876
2018-10-09T10:37:59.703Z,7724
2018-10-09T10:39:00.193Z,7552
2018-10-09T10:40:00.190Z,7364
2018-10-09T10:41:00.190Z,7204
2018-10-09T10:42:00.267Z,7052
2018-10-09T10:43:00.196Z,6944
2018-10-09T10:43:59.928Z,6860
2018-10-09T10:45:00.235Z,6820
2018-10-09T10:46:00.193Z,6768
2018-10-09T10:47:00.184Z,6696
2018-10-09T10:48:00.182Z,6620
2018-10-09T10:49:00.458Z,6532
2018-10-09T10:50:00.184Z,6424
2018-10-09T10:50:59.930Z,6316
2018-10-09T10:52:00.184Z,6148
2018-10-09T10:53:00.181Z,5968
2018-10-09T10:54:00.173Z,5760
2018-10-09T10:55:00.472Z,5564
2018-10-09T10:55:59.919Z,5324
2018-10-09T10:57:00.180Z,5068
2018-10-09T10:57:59.917Z,4796
2018-10-09T10:59:00.172Z,4508
2018-10-09T11:00:00.175Z,4272
2018-10-09T11:00:59.912Z,4088
2018-10-09T11:02:00.469Z,3948
2018-10-09T11:03:00.164Z,3840
2018-10-09T11:04:00.169Z,3780
2018-10-09T11:04:59.659Z,3740
2018-10-09T11:06:00.157Z,3728
2018-10-09T11:07:00.161Z,3728
2018-10-09T11:08:00.290Z,3740
2018-10-09T11:09:00.162Z,3732
2018-10-09T11:10:00.162Z,3740
2018-10-09T11:11:00.153Z,3720
2018-10-09T11:11:59.894Z,3744
2018-10-09T11:13:00.158Z,3800
2018-10-09T11:14:00.151Z,3792
2018-10-09T11:15:00.153Z,3796
2018-10-09T11:16:00.145Z,3796
2018-10-09T11:16:59.884Z,3812
2018-10-09T11:18:00.139Z,3800
2018-10-09T11:19:00.142Z,3812
2018-10-09T11:19:59.881Z,3864
2018-10-09T11:21:00.016Z,3876
2018-10-09T11:22:00.133Z,3836
2018-10-09T11:23:00.140Z,3780
2018-10-09T11:23:59.876Z,3712
2018-10-09T11:25:00.140Z,3680
2018-10-09T11:25:59.613Z,3656
2018-10-09T11:27:00.220Z,3644
2018-10-09T11:28:00.121Z,3628
2018-10-09T11:28:59.604Z,3604
2018-10-09T11:29:59.868Z,3588
2018-10-09T11:30:59.861Z,3552
2018-10-09T11:32:00.111Z,3516
2018-10-09T11:32:59.854Z,3480
2018-10-09T11:33:59.595Z,3420
2018-10-09T11:35:00.123Z,3308
2018-10-09T11:36:00.108Z,3220
2018-10-09T11:36:59.846Z,3196
2018-10-09T11:38:00.102Z,3356
2018-10-09T11:39:00.097Z,3512
2018-10-09T11:40:00.120Z,3508
2018-10-09T11:41:00.103Z,3596
2018-10-09T11:41:59.843Z,3656
2018-10-09T11:43:00.023Z,3704
2018-10-09T11:43:59.837Z,3752
2018-10-09T11:44:59.577Z,3816
2018-10-09T11:46:00.098Z,3888
2018-10-09T11:47:00.086Z,3968
2018-10-09T11:47:59.832Z,4064
2018-10-09T11:49:00.081Z,4160
2018-10-09T11:49:59.571Z,4252
2018-10-09T11:50:59.313Z,4404
2018-10-09T11:51:59.572Z,4544
2018-10-09T11:53:00.078Z,4672
2018-10-09T11:54:00.105Z,4780
2018-10-09T11:55:00.081Z,4872
2018-10-09T11:55:59.816Z,4956
2018-10-09T11:56:59.808Z,4956
2018-10-09T11:58:00.070Z,4912
2018-10-09T11:59:00.114Z,4836
2018-10-09T11:59:59.824Z,4720
2018-10-09T12:01:00.066Z,4540
2018-10-09T12:01:59.805Z,4372
2018-10-09T12:03:00.483Z,4228
2018-10-09T12:03:59.551Z,4112
2018-10-09T12:04:59.802Z,3996
2018-10-09T12:05:59.968Z,3888
2018-10-09T12:07:00.055Z,3788
2018-10-09T12:08:00.051Z,3688
2018-10-09T12:08:59.797Z,3588
2018-10-09T12:10:00.067Z,3488
2018-10-09T12:11:00.054Z,3428
2018-10-09T12:11:59.565Z,3356
2018-10-09T12:13:00.046Z,3324
2018-10-09T12:14:00.046Z,3264
2018-10-09T12:14:59.795Z,3220
2018-10-09T12:16:00.052Z,3184
2018-10-09T12:17:00.045Z,3112
2018-10-09T12:18:00.045Z,3152
2018-10-09T12:18:59.525Z,3132
2018-10-09T12:20:00.029Z,3072
2018-10-09T12:20:59.783Z,3080
2018-10-09T12:21:59.785Z,3032
2018-10-09T12:23:00.029Z,3008
2018-10-09T12:24:00.023Z,3012
2018-10-09T12:25:00.025Z,2988
2018-10-09T12:26:00.023Z,2972
2018-10-09T12:26:59.901Z,2964
2018-10-09T12:28:00.025Z,2944
2018-10-09T12:29:00.019Z,2932
2018-10-09T12:29:59.758Z,2916
2018-10-09T12:31:00.019Z,2896
2018-10-09T12:32:00.010Z,2864
2018-10-09T12:33:00.341Z,2832
2018-10-09T12:34:00.020Z,2820
2018-10-09T12:34:59.753Z,2812
2018-10-09T12:35:59.492Z,2792
2018-10-09T12:36:59.999Z,2768
2018-10-09T12:37:59.999Z,2748
2018-10-09T12:38:59.996Z,2720
2018-10-09T12:40:00.000Z,2704
2018-10-09T12:40:59.992Z,2688
2018-10-09T12:42:00.054Z,2668
2018-10-09T12:42:59.999Z,2636
2018-10-09T12:44:00.490Z,2612
2018-10-09T12:44:59.995Z,2584
2018-10-09T12:45:59.733Z,2556
2018-10-09T12:46:59.981Z,2524
2018-10-09T12:47:59.985Z,2508
2018-10-09T12:48:59.724Z,2492
2018-10-09T12:49:59.975Z,2480
2018-10-09T12:50:59.976Z,2476
2018-10-09T12:51:59.971Z,2476
2018-10-09T12:53:00.243Z,2484
2018-10-09T12:53:59.459Z,2492
2018-10-09T12:54:59.719Z,2480
2018-10-09T12:55:59.965Z,2492
2018-10-09T12:56:59.500Z,2516
2018-10-09T12:57:59.715Z,2528
2018-10-09T12:59:00.214Z,2536
2018-10-09T12:59:59.716Z,2544
2018-10-09T13:00:59.957Z,2540
2018-10-09T13:01:59.708Z,2528
2018-10-09T13:02:59.788Z,2536
2018-10-09T13:03:59.697Z,2556
2018-10-09T13:04:59.700Z,2580
2018-10-09T13:05:59.693Z,2636
2018-10-09T13:06:59.950Z,2660
2018-10-09T13:07:59.948Z,2684
2018-10-09T13:08:59.943Z,2692
2018-10-09T13:09:59.687Z,2716
2018-10-09T13:10:59.691Z,2728
2018-10-09T13:11:59.947Z,2740
2018-10-09T13:12:59.677Z,2736
2018-10-09T13:13:59.936Z,2748
2018-10-09T13:14:59.678Z,2752
2018-10-09T13:15:59.671Z,2756
2018-10-09T13:16:59.711Z,2768
2018-10-09T13:17:59.925Z,2796
2018-10-09T13:18:59.668Z,2804
2018-10-09T13:19:59.917Z,2808
2018-10-09T13:21:00.590Z,2808
2018-10-09T13:22:01.799Z,2804
2018-10-09T13:23:00.028Z,2792
2018-10-09T13:23:59.659Z,2796
2018-10-09T13:24:59.915Z,2788
2018-10-09T13:25:59.936Z,2784
2018-10-09T13:26:59.975Z,2784
2018-10-09T13:27:59.398Z,2780
2018-10-09T13:28:59.657Z,2784
2018-10-09T13:29:59.644Z,2808
2018-10-09T13:31:00.204Z,2844
2018-10-09T13:31:59.905Z,2864
2018-10-09T13:32:59.644Z,2884
2018-10-09T13:33:59.771Z,2920
2018-10-09T13:34:59.644Z,2956
2018-10-09T13:35:59.893Z,3000
2018-10-09T13:36:59.636Z,3040
2018-10-09T13:37:59.669Z,3068
2018-10-09T13:38:59.886Z,3088
2018-10-09T13:39:59.629Z,3116
2018-10-09T13:41:00.060Z,3144
2018-10-09T13:41:59.621Z,3152
2018-10-09T13:42:59.630Z,3196
2018-10-09T13:43:59.781Z,3208
2018-10-09T13:44:59.618Z,3208
2018-10-09T13:45:59.891Z,3204
2018-10-09T13:46:59.620Z,3188
2018-10-09T13:47:59.878Z,3168
2018-10-09T13:48:59.868Z,3152
2018-10-09T13:49:59.613Z,3120